sensor_id;sensor_type;location;lat;lon;timestamp;temperature;humidity
20735;DHT22;10528;52.124;5.196;2022-12-10T00:01:27;1.10;99.90
20735;DHT22;10528;52.124;5.196;2022-12-10T00:03:56;1.10;99.90
20735;DHT22;10528;52.124;5.196;2022-12-10T00:06:26;1.10;99.90
20735;DHT22;10528;52.124;5.196;2022-12-10T00:08:55;1.20;99.90
20735;DHT22;10528;52.124;5.196;2022-12-10T00:11:24;1.20;99.90
20735;DHT22;10528;52.124;5.196;2022-12-10T00:13:52;1.20;99.90
20735;DHT22;10528;52.124;5.196;2022-12-10T00:16:24;1.20;99.90
20735;DHT22;10528;52.124;5.196;2022-12-10T00:18:53;1.20;99.90
20735;DHT22;10528;52.124;5.196;2022-12-10T00:21:24;1.20;99.90
20735;DHT22;10528;52.124;5.196;2022-12-10T00:23:54;1.10;99.90
20735;DHT22;10528;52.124;5.196;2022-12-10T00:28:51;1.00;99.90
20735;DHT22;10528;52.124;5.196;2022-12-10T00:31:25;1.00;99.90
20735;DHT22;10528;52.124;5.196;2022-12-10T00:33:55;1.00;99.90
20735;DHT22;10528;52.124;5.196;2022-12-10T00:36:42;1.00;99.90
20735;DHT22;10528;52.124;5.196;2022-12-10T00:39:16;1.00;99.90
20735;DHT22;10528;52.124;5.196;2022-12-10T00:41:45;1.00;99.90
20735;DHT22;10528;52.124;5.196;2022-12-10T00:44:12;1.00;99.90
20735;DHT22;10528;52.124;5.196;2022-12-10T00:46:40;1.00;99.90
20735;DHT22;10528;52.124;5.196;2022-12-10T00:49:07;1.00;99.90
20735;DHT22;10528;52.124;5.196;2022-12-10T00:51:35;1.00;99.90
20735;DHT22;10528;52.124;5.196;2022-12-10T00:54:02;1.00;99.90
20735;DHT22;10528;52.124;5.196;2022-12-10T00:56:32;1.00;99.90
20735;DHT22;10528;52.124;5.196;2022-12-10T00:59:00;1.10;99.90
20735;DHT22;10528;52.124;5.196;2022-12-10T01:01:36;1.10;99.90
20735;DHT22;10528;52.124;5.196;2022-12-10T01:04:14;1.10;99.90
20735;DHT22;10528;52.124;5.196;2022-12-10T01:06:45;1.10;99.90
20735;DHT22;10528;52.124;5.196;2022-12-10T01:09:20;1.20;99.90
20735;DHT22;10528;52.124;5.196;2022-12-10T01:11:49;1.10;99.90
20735;DHT22;10528;52.124;5.196;2022-12-10T01:14:24;1.10;99.90
20735;DHT22;10528;52.124;5.196;2022-12-10T01:16:55;1.10;99.90
20735;DHT22;10528;52.124;5.196;2022-12-10T01:19:24;1.00;99.90
20735;DHT22;10528;52.124;5.196;2022-12-10T01:21:53;1.10;99.90
20735;DHT22;10528;52.124;5.196;2022-12-10T01:24:21;1.20;99.90
20735;DHT22;10528;52.124;5.196;2022-12-10T01:26:49;1.20;99.90
20735;DHT22;10528;52.124;5.196;2022-12-10T01:29:16;1.10;99.90
20735;DHT22;10528;52.124;5.196;2022-12-10T01:31:43;1.00;99.90
20735;DHT22;10528;52.124;5.196;2022-12-10T01:34:12;1.00;99.90
20735;DHT22;10528;52.124;5.196;2022-12-10T01:36:42;1.10;99.90
20735;DHT22;10528;52.124;5.196;2022-12-10T01:39:13;1.10;99.90
20735;DHT22;10528;52.124;5.196;2022-12-10T01:42:00;1.10;99.90
20735;DHT22;10528;52.124;5.196;2022-12-10T01:46:57;1.00;99.90
20735;DHT22;10528;52.124;5.196;2022-12-10T01:49:39;1.00;99.90
20735;DHT22;10528;52.124;5.196;2022-12-10T01:52:09;1.00;99.90
20735;DHT22;10528;52.124;5.196;2022-12-10T01:54:44;1.00;99.90
20735;DHT22;10528;52.124;5.196;2022-12-10T01:57:20;1.00;99.90
20735;DHT22;10528;52.124;5.196;2022-12-10T01:59:57;1.00;99.90
20735;DHT22;10528;52.124;5.196;2022-12-10T02:02:40;1.00;99.90
20735;DHT22;10528;52.124;5.196;2022-12-10T02:05:27;1.00;99.90
20735;DHT22;10528;52.124;5.196;2022-12-10T02:08:15;1.00;99.90
20735;DHT22;10528;52.124;5.196;2022-12-10T02:14:02;1.00;99.90
20735;DHT22;10528;52.124;5.196;2022-12-10T02:16:38;1.00;99.90
20735;DHT22;10528;52.124;5.196;2022-12-10T02:22:21;1.00;99.90
20735;DHT22;10528;52.124;5.196;2022-12-10T02:24:52;1.00;99.90
20735;DHT22;10528;52.124;5.196;2022-12-10T02:30:14;1.00;99.90
20735;DHT22;10528;52.124;5.196;2022-12-10T02:32:43;1.00;99.90
20735;DHT22;10528;52.124;5.196;2022-12-10T02:35:21;1.00;99.90
20735;DHT22;10528;52.124;5.196;2022-12-10T02:38:05;0.90;99.90
20735;DHT22;10528;52.124;5.196;2022-12-10T02:40:37;1.00;99.90
20735;DHT22;10528;52.124;5.196;2022-12-10T02:43:08;1.00;99.90
20735;DHT22;10528;52.124;5.196;2022-12-10T02:45:38;1.10;99.90
20735;DHT22;10528;52.124;5.196;2022-12-10T02:48:09;1.10;99.90
20735;DHT22;10528;52.124;5.196;2022-12-10T02:50:41;1.10;99.90
20735;DHT22;10528;52.124;5.196;2022-12-10T02:53:07;1.10;99.90
20735;DHT22;10528;52.124;5.196;2022-12-10T02:56:13;1.10;99.90
20735;DHT22;10528;52.124;5.196;2022-12-10T03:02:19;1.00;99.90
20735;DHT22;10528;52.124;5.196;2022-12-10T03:05:01;1.00;99.90
20735;DHT22;10528;52.124;5.196;2022-12-10T03:07:37;1.10;99.90
20735;DHT22;10528;52.124;5.196;2022-12-10T03:10:17;1.10;99.90
20735;DHT22;10528;52.124;5.196;2022-12-10T03:12:50;0.90;99.90
20735;DHT22;10528;52.124;5.196;2022-12-10T03:15:24;1.00;99.90
20735;DHT22;10528;52.124;5.196;2022-12-10T03:17:55;1.10;99.90
20735;DHT22;10528;52.124;5.196;2022-12-10T03:20:24;1.00;99.90
20735;DHT22;10528;52.124;5.196;2022-12-10T03:22:53;1.00;99.90
20735;DHT22;10528;52.124;5.196;2022-12-10T03:25:25;1.00;99.90
20735;DHT22;10528;52.124;5.196;2022-12-10T03:27:56;1.10;99.90
20735;DHT22;10528;52.124;5.196;2022-12-10T03:30:25;1.10;99.90
20735;DHT22;10528;52.124;5.196;2022-12-10T03:32:53;1.00;99.90
20735;DHT22;10528;52.124;5.196;2022-12-10T03:35:21;1.00;99.90
20735;DHT22;10528;52.124;5.196;2022-12-10T03:37:50;1.10;99.90
20735;DHT22;10528;52.124;5.196;2022-12-10T03:40:21;1.10;99.90
20735;DHT22;10528;52.124;5.196;2022-12-10T03:42:49;1.10;99.90
20735;DHT22;10528;52.124;5.196;2022-12-10T03:45:17;1.20;99.90
20735;DHT22;10528;52.124;5.196;2022-12-10T03:47:44;1.20;99.90
20735;DHT22;10528;52.124;5.196;2022-12-10T03:50:11;1.20;99.90
20735;DHT22;10528;52.124;5.196;2022-12-10T03:52:39;1.10;99.90
20735;DHT22;10528;52.124;5.196;2022-12-10T03:55:06;1.20;99.90
20735;DHT22;10528;52.124;5.196;2022-12-10T03:57:34;1.20;99.90
20735;DHT22;10528;52.124;5.196;2022-12-10T04:00:03;1.20;99.90
20735;DHT22;10528;52.124;5.196;2022-12-10T04:02:37;1.20;99.90
20735;DHT22;10528;52.124;5.196;2022-12-10T04:05:05;1.20;99.90
20735;DHT22;10528;52.124;5.196;2022-12-10T04:07:33;1.30;99.90
20735;DHT22;10528;52.124;5.196;2022-12-10T04:10:01;1.20;99.90
20735;DHT22;10528;52.124;5.196;2022-12-10T04:12:29;1.20;99.90
20735;DHT22;10528;52.124;5.196;2022-12-10T04:14:56;1.20;99.90
20735;DHT22;10528;52.124;5.196;2022-12-10T04:17:41;1.20;99.90
20735;DHT22;10528;52.124;5.196;2022-12-10T04:20:08;1.30;99.90
20735;DHT22;10528;52.124;5.196;2022-12-10T04:22:56;1.30;99.90
20735;DHT22;10528;52.124;5.196;2022-12-10T04:25:42;1.20;99.90
20735;DHT22;10528;52.124;5.196;2022-12-10T04:28:28;1.30;99.90
20735;DHT22;10528;52.124;5.196;2022-12-10T04:30:55;1.30;99.90
20735;DHT22;10528;52.124;5.196;2022-12-10T04:33:22;1.30;99.90
20735;DHT22;10528;52.124;5.196;2022-12-10T04:35:49;1.30;99.90
20735;DHT22;10528;52.124;5.196;2022-12-10T04:38:16;1.30;99.90
20735;DHT22;10528;52.124;5.196;2022-12-10T04:40:42;1.30;99.90
20735;DHT22;10528;52.124;5.196;2022-12-10T04:43:09;1.20;99.90
20735;DHT22;10528;52.124;5.196;2022-12-10T04:45:36;1.20;99.90
20735;DHT22;10528;52.124;5.196;2022-12-10T04:48:05;1.10;99.90
20735;DHT22;10528;52.124;5.196;2022-12-10T04:50:32;1.00;99.90
20735;DHT22;10528;52.124;5.196;2022-12-10T04:52:59;1.20;99.90
20735;DHT22;10528;52.124;5.196;2022-12-10T04:55:26;1.10;99.90
20735;DHT22;10528;52.124;5.196;2022-12-10T04:57:53;1.10;99.90
20735;DHT22;10528;52.124;5.196;2022-12-10T05:00:20;1.20;99.90
20735;DHT22;10528;52.124;5.196;2022-12-10T05:02:49;1.10;99.90
20735;DHT22;10528;52.124;5.196;2022-12-10T05:05:16;1.10;99.90
20735;DHT22;10528;52.124;5.196;2022-12-10T05:07:43;1.20;99.90
20735;DHT22;10528;52.124;5.196;2022-12-10T05:10:10;1.20;99.90
20735;DHT22;10528;52.124;5.196;2022-12-10T05:12:37;1.20;99.90
20735;DHT22;10528;52.124;5.196;2022-12-10T05:15:04;1.20;99.90
20735;DHT22;10528;52.124;5.196;2022-12-10T05:17:33;1.20;99.90
20735;DHT22;10528;52.124;5.196;2022-12-10T05:20:01;1.10;99.90
20735;DHT22;10528;52.124;5.196;2022-12-10T05:22:29;1.20;99.90
20735;DHT22;10528;52.124;5.196;2022-12-10T05:25:14;1.10;99.90
20735;DHT22;10528;52.124;5.196;2022-12-10T05:27:41;1.20;99.90
20735;DHT22;10528;52.124;5.196;2022-12-10T05:30:09;1.10;99.90
20735;DHT22;10528;52.124;5.196;2022-12-10T05:32:37;1.10;99.90
20735;DHT22;10528;52.124;5.196;2022-12-10T05:35:04;1.10;99.90
20735;DHT22;10528;52.124;5.196;2022-12-10T05:37:32;1.10;99.90
20735;DHT22;10528;52.124;5.196;2022-12-10T05:39:59;1.10;99.90
20735;DHT22;10528;52.124;5.196;2022-12-10T05:42:26;1.10;99.90
20735;DHT22;10528;52.124;5.196;2022-12-10T05:44:53;1.10;99.90
20735;DHT22;10528;52.124;5.196;2022-12-10T05:47:19;1.10;99.90
20735;DHT22;10528;52.124;5.196;2022-12-10T05:49:46;1.10;99.90
20735;DHT22;10528;52.124;5.196;2022-12-10T05:52:18;1.10;99.90
20735;DHT22;10528;52.124;5.196;2022-12-10T05:54:45;1.20;99.90
20735;DHT22;10528;52.124;5.196;2022-12-10T05:57:12;1.10;99.90
20735;DHT22;10528;52.124;5.196;2022-12-10T05:59:39;1.10;99.90
20735;DHT22;10528;52.124;5.196;2022-12-10T06:02:05;1.10;99.90
20735;DHT22;10528;52.124;5.196;2022-12-10T06:04:32;1.10;99.90
20735;DHT22;10528;52.124;5.196;2022-12-10T06:06:59;1.10;99.90
20735;DHT22;10528;52.124;5.196;2022-12-10T06:09:26;1.10;99.90
20735;DHT22;10528;52.124;5.196;2022-12-10T06:11:53;1.10;99.90
20735;DHT22;10528;52.124;5.196;2022-12-10T06:14:20;1.10;99.90
20735;DHT22;10528;52.124;5.196;2022-12-10T06:16:47;1.20;99.90
20735;DHT22;10528;52.124;5.196;2022-12-10T06:19:13;1.10;99.90
20735;DHT22;10528;52.124;5.196;2022-12-10T06:21:40;1.10;99.90
20735;DHT22;10528;52.124;5.196;2022-12-10T06:24:07;1.20;99.90
20735;DHT22;10528;52.124;5.196;2022-12-10T06:26:34;1.10;99.90
20735;DHT22;10528;52.124;5.196;2022-12-10T06:29:01;1.10;99.90
20735;DHT22;10528;52.124;5.196;2022-12-10T06:31:28;1.10;99.90
20735;DHT22;10528;52.124;5.196;2022-12-10T06:33:55;1.20;99.90
20735;DHT22;10528;52.124;5.196;2022-12-10T06:36:22;1.20;99.90
20735;DHT22;10528;52.124;5.196;2022-12-10T06:38:49;1.10;99.90
20735;DHT22;10528;52.124;5.196;2022-12-10T06:41:18;1.10;99.90
20735;DHT22;10528;52.124;5.196;2022-12-10T06:43:47;1.20;99.90
20735;DHT22;10528;52.124;5.196;2022-12-10T06:46:18;1.20;99.90
20735;DHT22;10528;52.124;5.196;2022-12-10T06:48:46;1.20;99.90
20735;DHT22;10528;52.124;5.196;2022-12-10T06:51:14;1.20;99.90
20735;DHT22;10528;52.124;5.196;2022-12-10T06:53:41;1.10;99.90
20735;DHT22;10528;52.124;5.196;2022-12-10T06:56:16;1.30;99.90
20735;DHT22;10528;52.124;5.196;2022-12-10T06:58:45;1.30;99.90
20735;DHT22;10528;52.124;5.196;2022-12-10T07:03:48;1.30;99.90
20735;DHT22;10528;52.124;5.196;2022-12-10T07:06:17;1.40;99.90
20735;DHT22;10528;52.124;5.196;2022-12-10T07:08:46;1.30;99.90
20735;DHT22;10528;52.124;5.196;2022-12-10T07:11:15;1.30;99.90
20735;DHT22;10528;52.124;5.196;2022-12-10T07:13:43;1.30;99.90
20735;DHT22;10528;52.124;5.196;2022-12-10T07:16:18;1.30;99.90
20735;DHT22;10528;52.124;5.196;2022-12-10T07:18:57;1.30;99.90
20735;DHT22;10528;52.124;5.196;2022-12-10T07:21:32;1.30;99.90
20735;DHT22;10528;52.124;5.196;2022-12-10T07:24:06;1.30;99.90
20735;DHT22;10528;52.124;5.196;2022-12-10T07:26:38;1.30;99.90
20735;DHT22;10528;52.124;5.196;2022-12-10T07:29:09;1.30;99.90
20735;DHT22;10528;52.124;5.196;2022-12-10T07:31:40;1.30;99.90
20735;DHT22;10528;52.124;5.196;2022-12-10T07:34:07;1.30;99.90
20735;DHT22;10528;52.124;5.196;2022-12-10T07:36:36;1.30;99.90
20735;DHT22;10528;52.124;5.196;2022-12-10T07:39:05;1.30;99.90
20735;DHT22;10528;52.124;5.196;2022-12-10T07:41:34;1.30;99.90
20735;DHT22;10528;52.124;5.196;2022-12-10T07:44:03;1.20;99.90
20735;DHT22;10528;52.124;5.196;2022-12-10T07:46:33;1.20;99.90
20735;DHT22;10528;52.124;5.196;2022-12-10T07:49:01;1.20;99.90
20735;DHT22;10528;52.124;5.196;2022-12-10T07:51:29;1.20;99.90
20735;DHT22;10528;52.124;5.196;2022-12-10T07:53:57;1.20;99.90
20735;DHT22;10528;52.124;5.196;2022-12-10T07:56:24;1.20;99.90
20735;DHT22;10528;52.124;5.196;2022-12-10T07:58:52;1.20;99.90
20735;DHT22;10528;52.124;5.196;2022-12-10T08:01:24;1.20;99.90
20735;DHT22;10528;52.124;5.196;2022-12-10T08:03:53;1.20;99.90
20735;DHT22;10528;52.124;5.196;2022-12-10T08:06:26;1.20;99.90
20735;DHT22;10528;52.124;5.196;2022-12-10T08:08:55;1.20;99.90
20735;DHT22;10528;52.124;5.196;2022-12-10T08:11:24;1.20;99.90
20735;DHT22;10528;52.124;5.196;2022-12-10T08:13:53;1.10;99.90
20735;DHT22;10528;52.124;5.196;2022-12-10T08:16:25;1.10;99.90
20735;DHT22;10528;52.124;5.196;2022-12-10T08:18:55;1.10;99.90
20735;DHT22;10528;52.124;5.196;2022-12-10T08:21:25;1.10;99.90
20735;DHT22;10528;52.124;5.196;2022-12-10T08:23:54;1.10;99.90
20735;DHT22;10528;52.124;5.196;2022-12-10T08:26:24;1.10;99.90
20735;DHT22;10528;52.124;5.196;2022-12-10T08:28:53;1.10;99.90
20735;DHT22;10528;52.124;5.196;2022-12-10T08:31:22;1.20;99.90
20735;DHT22;10528;52.124;5.196;2022-12-10T08:33:51;1.20;99.90
20735;DHT22;10528;52.124;5.196;2022-12-10T08:36:19;1.10;99.90
20735;DHT22;10528;52.124;5.196;2022-12-10T08:38:46;1.10;99.90
20735;DHT22;10528;52.124;5.196;2022-12-10T08:41:22;1.10;99.90
20735;DHT22;10528;52.124;5.196;2022-12-10T08:43:51;1.10;99.90
20735;DHT22;10528;52.124;5.196;2022-12-10T08:46:19;1.10;99.90
20735;DHT22;10528;52.124;5.196;2022-12-10T08:48:46;1.10;99.90
20735;DHT22;10528;52.124;5.196;2022-12-10T08:51:15;1.10;99.90
20735;DHT22;10528;52.124;5.196;2022-12-10T08:53:44;1.10;99.90
20735;DHT22;10528;52.124;5.196;2022-12-10T08:56:11;1.10;99.90
20735;DHT22;10528;52.124;5.196;2022-12-10T08:58:39;1.00;99.90
20735;DHT22;10528;52.124;5.196;2022-12-10T09:01:08;1.10;99.90
20735;DHT22;10528;52.124;5.196;2022-12-10T09:03:37;1.10;99.90
20735;DHT22;10528;52.124;5.196;2022-12-10T09:06:07;1.00;99.90
20735;DHT22;10528;52.124;5.196;2022-12-10T09:08:38;1.10;99.90
20735;DHT22;10528;52.124;5.196;2022-12-10T09:13:44;1.10;99.90
20735;DHT22;10528;52.124;5.196;2022-12-10T09:16:11;1.10;99.90
20735;DHT22;10528;52.124;5.196;2022-12-10T09:18:39;1.20;99.90
20735;DHT22;10528;52.124;5.196;2022-12-10T09:21:08;1.10;99.90
20735;DHT22;10528;52.124;5.196;2022-12-10T09:23:39;1.10;99.90
20735;DHT22;10528;52.124;5.196;2022-12-10T09:26:13;1.10;99.90
20735;DHT22;10528;52.124;5.196;2022-12-10T09:28:42;1.10;99.90
20735;DHT22;10528;52.124;5.196;2022-12-10T09:31:10;1.10;99.90
20735;DHT22;10528;52.124;5.196;2022-12-10T09:33:47;1.00;99.90
20735;DHT22;10528;52.124;5.196;2022-12-10T09:36:16;1.00;99.90
20735;DHT22;10528;52.124;5.196;2022-12-10T09:38:44;1.00;99.90
20735;DHT22;10528;52.124;5.196;2022-12-10T09:46:58;1.10;99.90
20735;DHT22;10528;52.124;5.196;2022-12-10T09:52:45;1.20;99.90
20735;DHT22;10528;52.124;5.196;2022-12-10T09:55:16;1.20;99.90
20735;DHT22;10528;52.124;5.196;2022-12-10T09:57:48;1.20;99.90
20735;DHT22;10528;52.124;5.196;2022-12-10T10:00:34;1.20;99.90
20735;DHT22;10528;52.124;5.196;2022-12-10T10:03:04;1.20;99.90
20735;DHT22;10528;52.124;5.196;2022-12-10T10:05:40;1.10;99.90
20735;DHT22;10528;52.124;5.196;2022-12-10T10:10:59;1.30;99.90
20735;DHT22;10528;52.124;5.196;2022-12-10T10:19:27;1.20;99.90
20735;DHT22;10528;52.124;5.196;2022-12-10T10:21:56;1.20;99.90
20735;DHT22;10528;52.124;5.196;2022-12-10T10:24:28;1.20;99.90
20735;DHT22;10528;52.124;5.196;2022-12-10T10:27:13;1.20;99.90
20735;DHT22;10528;52.124;5.196;2022-12-10T10:29:48;1.20;99.90
20735;DHT22;10528;52.124;5.196;2022-12-10T10:35:04;1.30;99.90
20735;DHT22;10528;52.124;5.196;2022-12-10T10:37:41;1.20;99.90
20735;DHT22;10528;52.124;5.196;2022-12-10T10:40:50;1.20;99.90
20735;DHT22;10528;52.124;5.196;2022-12-10T10:43:25;1.30;99.90
20735;DHT22;10528;52.124;5.196;2022-12-10T10:46:21;1.20;99.90
20735;DHT22;10528;52.124;5.196;2022-12-10T10:48:50;1.20;99.90
20735;DHT22;10528;52.124;5.196;2022-12-10T10:51:22;1.20;99.90
20735;DHT22;10528;52.124;5.196;2022-12-10T10:53:55;1.20;99.90
20735;DHT22;10528;52.124;5.196;2022-12-10T10:56:28;1.30;99.90
20735;DHT22;10528;52.124;5.196;2022-12-10T11:01:49;1.20;99.90
20735;DHT22;10528;52.124;5.196;2022-12-10T11:04:47;1.30;99.90
20735;DHT22;10528;52.124;5.196;2022-12-10T11:09:57;1.20;99.90
20735;DHT22;10528;52.124;5.196;2022-12-10T11:12:37;1.20;99.90
20735;DHT22;10528;52.124;5.196;2022-12-10T11:17:50;1.20;99.90
20735;DHT22;10528;52.124;5.196;2022-12-10T11:23:13;1.20;99.90
20735;DHT22;10528;52.124;5.196;2022-12-10T11:31:49;1.30;99.90
20735;DHT22;10528;52.124;5.196;2022-12-10T11:37:39;1.20;99.90
20735;DHT22;10528;52.124;5.196;2022-12-10T11:40:38;1.30;99.90
20735;DHT22;10528;52.124;5.196;2022-12-10T11:49:22;1.30;99.90
20735;DHT22;10528;52.124;5.196;2022-12-10T11:55:07;1.40;99.90
20735;DHT22;10528;52.124;5.196;2022-12-10T12:10:07;1.40;99.90
20735;DHT22;10528;52.124;5.196;2022-12-10T12:15:32;1.40;99.90
20735;DHT22;10528;52.124;5.196;2022-12-10T12:21:11;1.30;99.90
20735;DHT22;10528;52.124;5.196;2022-12-10T12:23:56;1.40;99.90
20735;DHT22;10528;52.124;5.196;2022-12-10T12:26:39;1.30;99.90
20735;DHT22;10528;52.124;5.196;2022-12-10T12:29:43;1.30;99.90
20735;DHT22;10528;52.124;5.196;2022-12-10T12:32:21;1.30;99.90
20735;DHT22;10528;52.124;5.196;2022-12-10T12:35:03;1.30;99.90
20735;DHT22;10528;52.124;5.196;2022-12-10T12:40:30;1.50;99.90
20735;DHT22;10528;52.124;5.196;2022-12-10T12:43:07;1.40;99.90
20735;DHT22;10528;52.124;5.196;2022-12-10T12:45:41;1.50;99.90
20735;DHT22;10528;52.124;5.196;2022-12-10T12:48:29;1.50;99.90
20735;DHT22;10528;52.124;5.196;2022-12-10T12:51:20;1.50;99.90
20735;DHT22;10528;52.124;5.196;2022-12-10T12:53:53;1.40;99.90
20735;DHT22;10528;52.124;5.196;2022-12-10T13:02:42;1.50;99.90
20735;DHT22;10528;52.124;5.196;2022-12-10T13:05:18;1.40;99.90
20735;DHT22;10528;52.124;5.196;2022-12-10T13:11:00;1.50;99.90
20735;DHT22;10528;52.124;5.196;2022-12-10T13:14:11;1.50;99.90
20735;DHT22;10528;52.124;5.196;2022-12-10T13:22:07;1.50;99.90
20735;DHT22;10528;52.124;5.196;2022-12-10T13:24:45;1.60;99.90
20735;DHT22;10528;52.124;5.196;2022-12-10T13:27:32;1.60;99.90
20735;DHT22;10528;52.124;5.196;2022-12-10T13:37:57;1.70;99.90
20735;DHT22;10528;52.124;5.196;2022-12-10T13:43:37;1.60;99.90
20735;DHT22;10528;52.124;5.196;2022-12-10T13:49:28;1.40;99.90
20735;DHT22;10528;52.124;5.196;2022-12-10T13:52:05;1.50;99.90
20735;DHT22;10528;52.124;5.196;2022-12-10T14:01:51;1.50;99.90
20735;DHT22;10528;52.124;5.196;2022-12-10T14:04:52;1.50;99.90
20735;DHT22;10528;52.124;5.196;2022-12-10T14:07:44;1.50;99.90
20735;DHT22;10528;52.124;5.196;2022-12-10T14:10:18;1.50;99.90
20735;DHT22;10528;52.124;5.196;2022-12-10T14:12:50;1.40;99.90
20735;DHT22;10528;52.124;5.196;2022-12-10T14:15:23;1.50;99.90
20735;DHT22;10528;52.124;5.196;2022-12-10T14:18:02;1.60;99.90
20735;DHT22;10528;52.124;5.196;2022-12-10T14:20:35;1.60;99.90
20735;DHT22;10528;52.124;5.196;2022-12-10T14:23:05;1.60;99.90
20735;DHT22;10528;52.124;5.196;2022-12-10T14:26:15;1.60;99.90
20735;DHT22;10528;52.124;5.196;2022-12-10T14:28:56;1.50;99.90
20735;DHT22;10528;52.124;5.196;2022-12-10T14:31:33;1.50;99.90
20735;DHT22;10528;52.124;5.196;2022-12-10T14:34:08;1.50;99.90
20735;DHT22;10528;52.124;5.196;2022-12-10T14:36:44;1.50;99.90
20735;DHT22;10528;52.124;5.196;2022-12-10T14:39:21;1.50;99.90
20735;DHT22;10528;52.124;5.196;2022-12-10T14:42:04;1.50;99.90
20735;DHT22;10528;52.124;5.196;2022-12-10T14:44:37;1.50;99.90
20735;DHT22;10528;52.124;5.196;2022-12-10T14:47:14;1.50;99.90
20735;DHT22;10528;52.124;5.196;2022-12-10T14:49:45;1.60;99.90
20735;DHT22;10528;52.124;5.196;2022-12-10T14:52:30;1.60;99.90
20735;DHT22;10528;52.124;5.196;2022-12-10T14:54:59;1.60;99.90
20735;DHT22;10528;52.124;5.196;2022-12-10T14:57:33;1.60;99.90
20735;DHT22;10528;52.124;5.196;2022-12-10T15:00:07;1.60;99.90
20735;DHT22;10528;52.124;5.196;2022-12-10T15:02:42;1.60;99.90
20735;DHT22;10528;52.124;5.196;2022-12-10T15:05:24;1.70;99.90
20735;DHT22;10528;52.124;5.196;2022-12-10T15:08:06;1.70;99.90
20735;DHT22;10528;52.124;5.196;2022-12-10T15:10:43;1.70;99.90
20735;DHT22;10528;52.124;5.196;2022-12-10T15:16:19;1.70;99.90
20735;DHT22;10528;52.124;5.196;2022-12-10T15:19:23;1.70;99.90
20735;DHT22;10528;52.124;5.196;2022-12-10T15:22:01;1.70;99.90
20735;DHT22;10528;52.124;5.196;2022-12-10T15:24:44;1.70;99.90
20735;DHT22;10528;52.124;5.196;2022-12-10T15:27:19;1.70;99.90
20735;DHT22;10528;52.124;5.196;2022-12-10T15:29:49;1.60;99.90
20735;DHT22;10528;52.124;5.196;2022-12-10T15:32:23;1.70;99.90
20735;DHT22;10528;52.124;5.196;2022-12-10T15:34:55;1.70;99.90
20735;DHT22;10528;52.124;5.196;2022-12-10T15:37:37;1.70;99.90
20735;DHT22;10528;52.124;5.196;2022-12-10T15:40:27;1.80;99.90
20735;DHT22;10528;52.124;5.196;2022-12-10T15:43:24;1.80;99.90
20735;DHT22;10528;52.124;5.196;2022-12-10T15:45:57;1.80;99.90
20735;DHT22;10528;52.124;5.196;2022-12-10T15:48:28;1.80;99.90
20735;DHT22;10528;52.124;5.196;2022-12-10T15:50:56;1.90;99.90
20735;DHT22;10528;52.124;5.196;2022-12-10T15:53:34;1.90;99.90
20735;DHT22;10528;52.124;5.196;2022-12-10T15:56:04;1.90;99.90
20735;DHT22;10528;52.124;5.196;2022-12-10T15:58:31;1.80;99.90
20735;DHT22;10528;52.124;5.196;2022-12-10T16:00:58;1.80;99.90
20735;DHT22;10528;52.124;5.196;2022-12-10T16:03:28;1.80;99.90
20735;DHT22;10528;52.124;5.196;2022-12-10T16:05:56;1.80;99.90
20735;DHT22;10528;52.124;5.196;2022-12-10T16:08:28;1.90;99.90
20735;DHT22;10528;52.124;5.196;2022-12-10T16:10:59;1.90;99.90
20735;DHT22;10528;52.124;5.196;2022-12-10T16:13:34;1.80;99.90
20735;DHT22;10528;52.124;5.196;2022-12-10T16:16:04;1.80;99.90
20735;DHT22;10528;52.124;5.196;2022-12-10T16:18:33;1.80;99.90
20735;DHT22;10528;52.124;5.196;2022-12-10T16:21:05;1.90;99.90
20735;DHT22;10528;52.124;5.196;2022-12-10T16:23:34;1.80;99.90
20735;DHT22;10528;52.124;5.196;2022-12-10T16:26:02;1.90;99.90
20735;DHT22;10528;52.124;5.196;2022-12-10T16:28:34;1.80;99.90
20735;DHT22;10528;52.124;5.196;2022-12-10T16:31:01;1.80;99.90
20735;DHT22;10528;52.124;5.196;2022-12-10T16:33:28;1.90;99.90
20735;DHT22;10528;52.124;5.196;2022-12-10T16:35:55;1.80;99.90
20735;DHT22;10528;52.124;5.196;2022-12-10T16:38:28;1.70;99.90
20735;DHT22;10528;52.124;5.196;2022-12-10T16:40:55;1.80;99.90
20735;DHT22;10528;52.124;5.196;2022-12-10T16:43:27;1.80;99.90
20735;DHT22;10528;52.124;5.196;2022-12-10T16:45:56;1.90;99.90
20735;DHT22;10528;52.124;5.196;2022-12-10T16:48:23;1.90;99.90
20735;DHT22;10528;52.124;5.196;2022-12-10T16:50:51;1.90;99.90
20735;DHT22;10528;52.124;5.196;2022-12-10T16:53:28;1.90;99.90
20735;DHT22;10528;52.124;5.196;2022-12-10T16:55:57;1.80;99.90
20735;DHT22;10528;52.124;5.196;2022-12-10T16:58:24;1.90;99.90
20735;DHT22;10528;52.124;5.196;2022-12-10T17:00:53;1.90;99.90
20735;DHT22;10528;52.124;5.196;2022-12-10T17:03:24;1.90;99.90
20735;DHT22;10528;52.124;5.196;2022-12-10T17:05:59;1.90;99.90
20735;DHT22;10528;52.124;5.196;2022-12-10T17:08:29;1.90;99.90
20735;DHT22;10528;52.124;5.196;2022-12-10T17:10:57;2.00;99.90
20735;DHT22;10528;52.124;5.196;2022-12-10T17:13:44;1.90;99.90
20735;DHT22;10528;52.124;5.196;2022-12-10T17:16:15;1.90;99.90
20735;DHT22;10528;52.124;5.196;2022-12-10T17:18:46;1.90;99.90
20735;DHT22;10528;52.124;5.196;2022-12-10T17:21:13;1.80;99.90
20735;DHT22;10528;52.124;5.196;2022-12-10T17:23:40;1.80;99.90
20735;DHT22;10528;52.124;5.196;2022-12-10T17:26:08;1.80;99.90
20735;DHT22;10528;52.124;5.196;2022-12-10T17:28:47;1.90;99.90
20735;DHT22;10528;52.124;5.196;2022-12-10T17:31:14;1.90;99.90
20735;DHT22;10528;52.124;5.196;2022-12-10T17:33:40;1.90;99.90
20735;DHT22;10528;52.124;5.196;2022-12-10T17:36:15;1.90;99.90
20735;DHT22;10528;52.124;5.196;2022-12-10T17:38:43;2.00;99.90
20735;DHT22;10528;52.124;5.196;2022-12-10T17:41:10;1.90;99.90
20735;DHT22;10528;52.124;5.196;2022-12-10T17:43:42;2.00;99.90
20735;DHT22;10528;52.124;5.196;2022-12-10T17:46:11;2.00;99.90
20735;DHT22;10528;52.124;5.196;2022-12-10T17:48:39;2.00;99.90
20735;DHT22;10528;52.124;5.196;2022-12-10T17:51:08;1.90;99.90
20735;DHT22;10528;52.124;5.196;2022-12-10T17:53:37;1.90;99.90
20735;DHT22;10528;52.124;5.196;2022-12-10T17:56:26;1.80;99.90
20735;DHT22;10528;52.124;5.196;2022-12-10T17:58:57;1.80;99.90
20735;DHT22;10528;52.124;5.196;2022-12-10T18:01:24;1.90;99.90
20735;DHT22;10528;52.124;5.196;2022-12-10T18:03:57;1.80;99.90
20735;DHT22;10528;52.124;5.196;2022-12-10T18:06:29;1.80;99.90
20735;DHT22;10528;52.124;5.196;2022-12-10T18:08:59;1.90;99.90
20735;DHT22;10528;52.124;5.196;2022-12-10T18:11:34;1.80;99.90
20735;DHT22;10528;52.124;5.196;2022-12-10T18:14:02;1.90;99.90
20735;DHT22;10528;52.124;5.196;2022-12-10T18:16:31;1.90;99.90
20735;DHT22;10528;52.124;5.196;2022-12-10T18:19:03;1.80;99.90
20735;DHT22;10528;52.124;5.196;2022-12-10T18:21:37;1.80;99.90
20735;DHT22;10528;52.124;5.196;2022-12-10T18:24:04;1.90;99.90
20735;DHT22;10528;52.124;5.196;2022-12-10T18:26:31;1.90;99.90
20735;DHT22;10528;52.124;5.196;2022-12-10T18:29:01;1.90;99.90
20735;DHT22;10528;52.124;5.196;2022-12-10T18:31:32;1.80;99.90